Terminal Aerodrome Forecast
Issued by NWS El Paso, TX

Home | Current Version | Previous Version | Text Only | Print | Product List | Glossary On
Versions: 1 2 3 4 5 6 7 8 9 10 11 12 13 14
000
FTUS44 KEPZ 232336
TAFELP
TAF
KELP 232336Z 2400/2424 22015KT P6SM FEW250
     FM240500 24018G30KT P6SM SCT110 BKN200
      TEMPO 2406/2410 23025G38KT
     FM241200 25026G35KT P6SM BKN100=

USA.gov is the U.S. government's official web portal to all federal, state and local government web resources and services.